Página principal
METAR-TAF:

METAR-TAF

Aeroportos :

Pago Pago, Ilhas Menores Distantes dos Estados Unidos

latitude: 14-20S, longitude: 170-43W, altura: 3 m

Observação actual do tempo

O boletim foi feito há 55 minutos, às 03:50 UTC
Vento 7 kt de este
Temperatura 30°C
Humidade 66%
Pressão 1007 hPa
Visibilidade: 19.3 km
Poucas nuvensa uma altura de 1900 ft
Nuvens dispersasa uma altura de 4000 ft
Nuvens fragmentadasa uma altura de 22000 ft

METAR: NSTU 140350Z 09007KT 12SM FEW019 SCT040 BKN220 30/23 A2973 RMK SLP068 T03000230

Hora: 17:45 (04:45 UTC)

Previsão

O boletim foi feito há 5 horas e 5 minutos, às 23:40 UTC
Previsão válida de 14 às 00 UTC a 14 às 24 UTC
Vento 10 kt de este
Visibilidade: 10 km
Nuvens dispersasa uma altura de 2000 ft
Nuvens fragmentadasa uma altura de 20000 ft
aguaceiros nas vizinhanças

TAF: NSTU 132340Z 1400/1424 10010KT P6SM VCSH SCT020 BKN200

Observações e previsões do tempo de mais de 4000 aeroportos (mensagens METAR e TAF).

As estações disponíveis são os pontos amarelos e vermelhos sobre o mapa.

Mova o rato sobre o mapa para ver o nome da estação.

Depois clique no ponto para visualizar as observações e previsões meteorológicas.

Para alterar o mapa : clique nos botões verdes com uma cruz preta para aumentar o zoom; no botão verde com uma pitada de zoom; ou nas setas verdes para mapas adjacentes.


METAR-TAF: